Denver, Colorado
Traffic Map
Current Weather Conditions
Denver, Colorado
Scattered Clouds
Scattered Clouds
45°
Feels Like: 39°
Wind Chill: 39° Ceiling: Unl
Heat Index: 45° Visibility: 10mi
Dew Point: 28° Wind: 12mph
Humidity: 52% Direction: 200° (SSW)
Pressure: 30.04in Gusts: 0mph
Raw Report DataKBKF 251458Z 20010KT 10SM FEW140 SCT220 07/M02 A3004 RMK AO2A SLP160 T00701023 55004
Traffic Incident Summary
Active as of:
Severity:
Category:
InformationThere was an issue retrieving the traffic information for this location. Please try a different location or try again shortly.
Advertisements
Track Severe Weather on mobile